Upstream stations:
Downstream station:
SHEF ID: OSOK1 Oswego hwy 160
STATION TYPE:
PRECIP STAGE RIV-FLOW VOLTAGE BAT-LOAD
in ft cfs volt volt
Ccp-Rev Ccp-Rev Ccp-Rev Ccp-Rev Ccp-Rev
(US/Central)
03/29 00:00 0.00 12.57 3249 12.65 12.49
03/29 01:00 0.00 12.54 3217 12.65 12.49
03/29 02:00 0.00 12.54 3217 12.65 12.49
03/29 03:00 0.00 12.56 3238 12.57 12.41
03/29 04:00 0.00 12.49 3163 12.57 12.41
03/29 05:00 0.00 12.52 3195 12.57 12.41
03/29 06:00 0.00 12.53 3206 12.57 12.41
03/29 07:00 0.00 12.51 3185 12.57 12.41
03/29 08:00 0.00 12.51 3185 12.57 12.41
03/29 09:00 0.00 12.50 3174 12.65 12.49
03/29 10:00 0.00 12.45 3121 12.97 12.81
03/29 11:00 0.00 12.41 3078 13.13 12.81
03/29 12:00 0.00 12.41 3078 13.37 12.73
03/29 13:00 0.00 12.49 3163 13.44 12.65
03/29 14:00 0.00 12.38 3047 13.37 12.65
03/29 15:00 0.00 12.35 3015 13.37 12.65
03/29 16:00 0.00 12.40 3068 13.44 12.65
03/29 17:00 0.00 12.38 3047 13.37 12.57
03/29 18:00 0.00 12.38 3047 13.44 12.57
03/29 19:00 0.00 12.39 3057 12.65 12.57
03/29 20:00 0.00 12.42 3089 12.65 12.57
03/29 21:00 0.00 12.36 3026 12.65 12.49
03/29 22:00 0.00 12.37 3036 12.65 12.49
03/29 23:00 ---- ---- ---- ---- ----